createdAt,value
2022-08-07T00:02:35.238Z,20.13
2022-08-07T00:04:09.287Z,20.24
2022-08-07T00:06:41.062Z,20.33
2022-08-07T00:09:29.208Z,20.33
2022-08-07T00:12:05.856Z,20.30
2022-08-07T00:14:33.386Z,20.24
2022-08-07T00:17:02.417Z,20.16
2022-08-07T00:20:01.604Z,20.34
2022-08-07T00:22:24.769Z,20.33
2022-08-07T00:25:16.650Z,19.44
2022-08-07T00:27:52.609Z,18.99
2022-08-07T00:30:26.573Z,19.08
2022-08-07T00:32:59.731Z,19.17
2022-08-07T00:35:29.627Z,19.27
2022-08-07T00:37:59.663Z,19.47
2022-08-07T00:40:39.687Z,19.47
2022-08-07T00:43:10.545Z,19.53
2022-08-07T00:45:41.435Z,19.76
2022-08-07T00:48:14.296Z,19.88
2022-08-07T00:50:46.572Z,19.57
2022-08-07T00:53:20.435Z,19.59
2022-08-07T00:56:00.635Z,19.83
2022-08-07T00:58:32.669Z,19.19
2022-08-07T01:01:00.175Z,18.66
2022-08-07T01:03:56.343Z,19.00
2022-08-07T01:06:15.712Z,18.95
2022-08-07T01:08:53.520Z,19.04
2022-08-07T01:12:04.762Z,19.20
2022-08-07T01:14:10.623Z,19.32
2022-08-07T01:16:38.342Z,19.63
2022-08-07T01:19:14.837Z,19.68
2022-08-07T01:21:48.632Z,19.23
2022-08-07T01:24:18.684Z,19.26
2022-08-07T01:26:53.825Z,19.20
2022-08-07T01:29:27.979Z,19.33
2022-08-07T01:32:05.211Z,19.43
2022-08-07T01:34:33.647Z,19.46
2022-08-07T01:37:02.204Z,19.42
2022-08-07T01:39:40.469Z,19.49
2022-08-07T01:42:37.725Z,19.52
2022-08-07T01:44:57.734Z,19.58
2022-08-07T01:48:29.499Z,19.31
2022-08-07T01:50:14.105Z,19.29
2022-08-07T01:52:49.651Z,19.49
2022-08-07T01:55:26.653Z,19.47
2022-08-07T01:58:05.793Z,19.59
2022-08-07T02:00:35.820Z,19.54
2022-08-07T02:03:21.314Z,19.58
2022-08-07T02:05:59.655Z,19.68
2022-08-07T02:08:30.002Z,19.60
2022-08-07T02:10:59.718Z,19.48
2022-08-07T02:13:56.456Z,19.69
2022-08-07T02:16:19.932Z,19.63
2022-08-07T02:18:56.623Z,19.41
2022-08-07T02:21:26.696Z,19.60
2022-08-07T02:24:17.709Z,19.60
2022-08-07T02:26:46.312Z,19.09
2022-08-07T02:29:14.936Z,18.88
2022-08-07T02:31:50.166Z,19.03
2022-08-07T02:34:20.259Z,19.22
2022-08-07T02:36:49.636Z,19.46
2022-08-07T02:39:43.132Z,19.53
2022-08-07T02:42:10.174Z,19.07
2022-08-07T02:44:48.047Z,19.23
2022-08-07T02:47:23.526Z,19.32
2022-08-07T02:50:08.345Z,19.39
2022-08-07T02:52:48.862Z,19.58
2022-08-07T02:56:02.361Z,19.58
2022-08-07T02:58:22.217Z,19.52
2022-08-07T03:00:56.618Z,19.50
2022-08-07T03:03:29.455Z,19.11
2022-08-07T03:06:16.222Z,19.36
2022-08-07T03:08:44.981Z,19.31
2022-08-07T03:11:12.630Z,19.51
2022-08-07T03:13:49.413Z,19.39
2022-08-07T03:16:18.531Z,19.38
2022-08-07T03:18:51.282Z,19.46
2022-08-07T03:21:19.395Z,19.58
2022-08-07T03:24:20.754Z,19.65
2022-08-07T03:26:36.363Z,19.67
2022-08-07T03:29:19.162Z,19.77
2022-08-07T03:31:50.003Z,19.90
2022-08-07T03:34:22.128Z,19.75
2022-08-07T03:36:53.293Z,19.44
2022-08-07T03:39:46.571Z,19.61
2022-08-07T03:42:10.678Z,19.57
2022-08-07T03:44:41.836Z,19.73
2022-08-07T03:47:11.081Z,19.94
2022-08-07T03:49:40.458Z,19.84
2022-08-07T03:52:26.088Z,19.74
2022-08-07T03:55:06.756Z,19.93
2022-08-07T03:58:32.707Z,20.07
2022-08-07T04:00:30.286Z,20.20
2022-08-07T04:02:59.729Z,20.16
2022-08-07T04:05:40.754Z,20.05
2022-08-07T04:08:12.268Z,20.06
2022-08-07T04:10:42.244Z,19.87
2022-08-07T04:13:15.368Z,19.64
2022-08-07T04:15:43.693Z,19.72
2022-08-07T04:18:58.499Z,19.87
2022-08-07T04:21:03.075Z,20.06
2022-08-07T04:23:43.754Z,20.07
2022-08-07T04:26:25.161Z,20.16
2022-08-07T04:28:58.629Z,20.22
2022-08-07T04:31:39.100Z,20.26
2022-08-07T04:34:16.438Z,20.30
2022-08-07T04:36:45.233Z,20.07
2022-08-07T04:39:13.207Z,20.19
2022-08-07T04:41:50.277Z,20.51
2022-08-07T04:44:20.744Z,20.64
2022-08-07T04:47:03.946Z,20.61
2022-08-07T04:50:10.874Z,20.62
2022-08-07T04:53:09.334Z,20.61
2022-08-07T04:58:13.159Z,20.91
2022-08-07T04:59:16.900Z,20.91
2022-08-07T05:01:54.702Z,21.18
2022-08-07T05:04:33.566Z,21.18
2022-08-07T05:07:19.581Z,21.21
2022-08-07T05:10:01.311Z,21.47
2022-08-07T05:13:01.866Z,21.75
2022-08-07T05:15:53.500Z,21.88
2022-08-07T05:18:35.551Z,22.20
2022-08-07T05:21:12.682Z,22.21
2022-08-07T05:24:03.249Z,22.37
2022-08-07T05:26:33.897Z,22.53
2022-08-07T05:29:05.916Z,22.35
2022-08-07T05:31:39.790Z,22.35
2022-08-07T05:34:11.891Z,22.40
2022-08-07T05:36:42.318Z,22.40
2022-08-07T05:40:07.007Z,22.49
2022-08-07T05:42:03.001Z,22.47
2022-08-07T05:44:35.479Z,22.54
2022-08-07T05:47:18.315Z,22.72
2022-08-07T05:49:50.841Z,23.02
2022-08-07T05:52:20.757Z,23.20
2022-08-07T05:55:07.264Z,23.40
2022-08-07T05:57:42.259Z,23.56
2022-08-07T06:00:16.636Z,23.79
2022-08-07T06:02:51.031Z,23.90
2022-08-07T06:05:28.152Z,23.98
2022-08-07T06:08:29.818Z,24.06
2022-08-07T06:10:51.226Z,24.40
2022-08-07T06:13:20.926Z,24.37
2022-08-07T06:16:10.177Z,24.46
2022-08-07T06:18:51.735Z,24.65
2022-08-07T06:22:15.514Z,24.76
2022-08-07T06:24:45.495Z,24.67
2022-08-07T06:26:59.205Z,24.63
2022-08-07T06:29:32.123Z,24.92
2022-08-07T06:32:01.449Z,25.04
2022-08-07T06:34:29.809Z,24.82
2022-08-07T06:36:59.256Z,25.00
2022-08-07T06:40:16.246Z,25.09
2022-08-07T06:42:37.199Z,25.09
2022-08-07T06:45:11.276Z,25.22
2022-08-07T06:47:57.459Z,25.26
2022-08-07T06:50:27.429Z,25.07
2022-08-07T06:52:59.609Z,25.14
2022-08-07T06:55:53.442Z,25.28
2022-08-07T06:58:21.558Z,25.45
2022-08-07T07:00:53.288Z,25.25
2022-08-07T07:03:39.573Z,25.30
2022-08-07T07:06:10.975Z,25.45
2022-08-07T07:08:46.426Z,25.81
2022-08-07T07:12:09.096Z,25.57
2022-08-07T07:14:03.009Z,25.73
2022-08-07T07:16:34.357Z,25.63
2022-08-07T07:19:55.463Z,25.87
2022-08-07T07:22:04.972Z,25.97
2022-08-07T07:24:43.081Z,26.06
2022-08-07T07:27:25.564Z,25.87
2022-08-07T07:30:09.661Z,26.14
2022-08-07T07:32:40.587Z,26.31
2022-08-07T07:35:13.152Z,26.27
2022-08-07T07:37:47.296Z,26.22
2022-08-07T07:40:18.949Z,26.00
2022-08-07T07:42:54.191Z,26.32
2022-08-07T07:46:40.465Z,26.49
2022-08-07T07:48:34.724Z,26.67
2022-08-07T07:51:08.124Z,26.84
2022-08-07T07:53:51.357Z,26.55
2022-08-07T07:56:30.071Z,26.71
2022-08-07T07:59:06.197Z,26.74
2022-08-07T08:02:03.652Z,26.61
2022-08-07T08:04:25.827Z,26.44
2022-08-07T08:06:54.342Z,26.30
2022-08-07T08:09:24.495Z,26.30
2022-08-07T08:12:02.986Z,26.26
2022-08-07T08:14:36.417Z,26.31
2022-08-07T08:17:56.521Z,26.30
2022-08-07T08:20:17.523Z,26.49
2022-08-07T08:23:10.327Z,26.83
2022-08-07T08:25:58.230Z,26.76
2022-08-07T08:28:38.460Z,26.38
2022-08-07T08:31:15.901Z,26.18
2022-08-07T08:33:49.441Z,26.53
2022-08-07T08:36:29.669Z,26.43
2022-08-07T08:39:01.850Z,26.64
2022-08-07T08:41:57.064Z,26.82
2022-08-07T08:44:29.183Z,26.90
2022-08-07T08:47:09.872Z,26.91
2022-08-07T08:50:05.103Z,26.97
2022-08-07T08:52:53.758Z,27.28
2022-08-07T08:55:54.236Z,26.79
2022-08-07T08:58:36.108Z,27.06
2022-08-07T09:01:26.314Z,27.49
2022-08-07T09:04:03.877Z,27.60
2022-08-07T09:06:50.378Z,27.92
2022-08-07T09:09:42.278Z,28.35
2022-08-07T09:12:30.860Z,28.17
2022-08-07T09:16:24.534Z,28.67
2022-08-07T09:18:16.831Z,29.25
2022-08-07T09:20:58.335Z,29.15
2022-08-07T09:24:31.663Z,29.35
2022-08-07T09:26:33.751Z,29.47
2022-08-07T09:30:05.704Z,29.16
2022-08-07T09:32:48.403Z,28.80
2022-08-07T09:36:03.238Z,28.60
2022-08-07T09:38:31.911Z,28.90
2022-08-07T09:41:19.690Z,28.42
2022-08-07T09:44:05.829Z,28.66
2022-08-07T09:47:49.767Z,28.50
2022-08-07T09:50:00.760Z,28.78
2022-08-07T09:52:33.348Z,29.07
2022-08-07T09:55:17.056Z,29.46
2022-08-07T09:58:10.199Z,29.69
2022-08-07T10:00:59.978Z,30.05
2022-08-07T10:04:05.293Z,30.05
2022-08-07T10:06:38.272Z,29.14
2022-08-07T10:09:09.446Z,29.75
2022-08-07T10:12:00.627Z,29.69
2022-08-07T10:14:31.328Z,29.97
2022-08-07T10:17:17.408Z,29.99
2022-08-07T10:20:13.161Z,29.51
2022-08-07T10:22:50.905Z,29.25
2022-08-07T10:25:20.809Z,29.66
2022-08-07T10:27:57.495Z,30.21
2022-08-07T10:30:36.597Z,30.26
2022-08-07T10:33:08.865Z,30.50
2022-08-07T10:35:55.783Z,30.90
2022-08-07T10:38:41.384Z,30.93
2022-08-07T10:41:16.050Z,30.86
2022-08-07T10:44:19.473Z,31.18
2022-08-07T10:47:16.757Z,31.40
2022-08-07T10:50:18.804Z,31.15
2022-08-07T10:53:08.142Z,31.15
2022-08-07T10:55:50.441Z,31.24
2022-08-07T10:58:33.343Z,30.59
2022-08-07T11:01:15.111Z,30.24
2022-08-07T11:03:54.973Z,30.07
2022-08-07T11:06:40.496Z,30.54
2022-08-07T11:10:07.896Z,30.97
2022-08-07T11:12:12.181Z,31.26
2022-08-07T11:14:59.857Z,30.88
2022-08-07T11:17:45.075Z,30.85
2022-08-07T11:20:16.686Z,31.03
2022-08-07T11:22:51.973Z,31.22
2022-08-07T11:25:23.193Z,30.57
2022-08-07T11:28:01.143Z,30.68
2022-08-07T11:30:51.017Z,30.96
2022-08-07T11:33:53.831Z,30.92
2022-08-07T11:36:14.027Z,30.83
2022-08-07T11:38:54.702Z,30.84
2022-08-07T11:42:00.308Z,30.73
2022-08-07T11:44:36.752Z,30.14
2022-08-07T11:47:38.679Z,30.29
2022-08-07T11:50:30.307Z,29.78
2022-08-07T11:53:05.262Z,29.16
2022-08-07T11:56:15.754Z,29.25
2022-08-07T11:59:00.368Z,29.68
2022-08-07T12:02:00.666Z,29.84
2022-08-07T12:04:35.697Z,30.15
2022-08-07T12:07:20.583Z,30.24
2022-08-07T12:10:02.125Z,30.43
2022-08-07T12:12:37.199Z,30.72
2022-08-07T12:15:08.240Z,30.62
2022-08-07T12:17:59.377Z,30.94
2022-08-07T12:20:36.427Z,30.84
2022-08-07T12:23:37.125Z,30.66
2022-08-07T12:26:33.636Z,30.20
2022-08-07T12:29:03.965Z,30.45
2022-08-07T12:32:01.660Z,30.24
2022-08-07T12:34:32.766Z,30.61
2022-08-07T12:37:01.110Z,30.71
2022-08-07T12:39:43.026Z,30.27
2022-08-07T12:42:13.606Z,29.98
2022-08-07T12:44:46.254Z,30.09
2022-08-07T12:47:27.084Z,29.59
2022-08-07T12:50:39.564Z,29.62
2022-08-07T12:54:02.808Z,29.83
2022-08-07T12:56:30.151Z,30.15
2022-08-07T12:59:00.110Z,30.37
2022-08-07T13:01:45.411Z,30.08
2022-08-07T13:04:33.983Z,29.69
2022-08-07T13:08:12.494Z,29.80
2022-08-07T13:10:19.533Z,29.93
2022-08-07T13:13:11.046Z,30.46
2022-08-07T13:16:17.803Z,30.24
2022-08-07T13:19:04.354Z,29.70
2022-08-07T13:21:57.448Z,30.49
2022-08-07T13:24:37.576Z,30.11
2022-08-07T13:27:23.889Z,30.41
2022-08-07T13:30:19.582Z,30.52
2022-08-07T13:33:03.226Z,30.66
2022-08-07T13:36:01.099Z,31.08
2022-08-07T13:38:42.060Z,30.50
2022-08-07T13:41:31.296Z,30.48
2022-08-07T13:44:02.378Z,30.36
2022-08-07T13:46:38.849Z,30.76
2022-08-07T13:50:31.679Z,30.27
2022-08-07T13:52:27.077Z,29.77
2022-08-07T13:55:00.644Z,29.30
2022-08-07T13:57:37.667Z,28.36
2022-08-07T14:00:13.362Z,27.73
2022-08-07T14:02:57.146Z,27.09
2022-08-07T14:05:37.462Z,27.15
2022-08-07T14:08:07.986Z,27.03
2022-08-07T14:10:41.985Z,26.98
2022-08-07T14:13:17.011Z,26.87
2022-08-07T14:15:57.149Z,27.13
2022-08-07T14:18:30.413Z,27.22
2022-08-07T14:21:11.834Z,27.22
2022-08-07T14:24:04.242Z,27.32
2022-08-07T14:26:50.236Z,27.59
2022-08-07T14:30:06.157Z,27.78
2022-08-07T14:32:16.622Z,27.73
2022-08-07T14:34:47.941Z,27.75
2022-08-07T14:37:23.848Z,27.51
2022-08-07T14:40:15.848Z,27.28
2022-08-07T14:43:01.153Z,27.61
2022-08-07T14:45:51.767Z,27.50
2022-08-07T14:48:27.285Z,27.43
2022-08-07T14:51:02.969Z,27.40
2022-08-07T14:54:03.649Z,27.26
2022-08-07T14:59:13.708Z,28.22
2022-08-07T15:02:31.973Z,27.90
2022-08-07T15:05:01.754Z,27.80
2022-08-07T15:07:47.462Z,27.61
2022-08-07T15:10:20.263Z,27.59
2022-08-07T15:12:58.455Z,27.55
2022-08-07T15:15:38.436Z,27.57
2022-08-07T15:18:34.796Z,27.37
2022-08-07T15:25:13.284Z,26.93
2022-08-07T15:27:03.911Z,27.20
2022-08-07T15:30:09.565Z,27.24
2022-08-07T15:32:39.939Z,27.71
2022-08-07T15:35:18.360Z,28.78
2022-08-07T15:38:30.353Z,29.00
2022-08-07T15:41:22.815Z,29.46
2022-08-07T15:43:55.926Z,29.14
2022-08-07T15:46:31.246Z,28.55
2022-08-07T15:49:12.618Z,28.99
2022-08-07T15:54:45.958Z,30.04
2022-08-07T15:57:39.649Z,30.71
2022-08-07T16:00:08.565Z,31.59
2022-08-07T16:02:58.546Z,32.39
2022-08-07T16:05:31.207Z,32.62
2022-08-07T16:08:32.013Z,32.95
2022-08-07T16:11:26.472Z,32.99
2022-08-07T16:14:21.776Z,32.64
2022-08-07T16:16:49.850Z,32.74
2022-08-07T16:19:42.519Z,32.41
2022-08-07T16:22:31.958Z,31.36
2022-08-07T16:25:23.103Z,30.11
2022-08-07T16:30:09.075Z,28.87
2022-08-07T16:31:10.028Z,29.01
2022-08-07T16:34:03.122Z,29.81
2022-08-07T16:37:00.175Z,30.44
2022-08-07T16:39:49.083Z,31.01
2022-08-07T16:42:25.570Z,31.25
2022-08-07T16:45:14.730Z,30.87
2022-08-07T16:47:59.195Z,30.02
2022-08-07T16:51:21.681Z,29.52
2022-08-07T16:54:06.261Z,28.57
2022-08-07T16:56:56.788Z,28.41
2022-08-07T16:59:46.675Z,27.64
2022-08-07T17:02:28.390Z,27.59
2022-08-07T17:06:19.095Z,27.23
2022-08-07T17:08:19.442Z,26.82
2022-08-07T17:10:57.498Z,26.47
2022-08-07T17:13:40.321Z,26.52
2022-08-07T17:16:34.057Z,26.10
2022-08-07T17:19:04.743Z,26.05
2022-08-07T17:21:51.100Z,25.54
2022-08-07T17:24:29.363Z,25.52
2022-08-07T17:26:58.265Z,25.51
2022-08-07T17:30:16.159Z,25.46
2022-08-07T17:32:30.407Z,25.30
2022-08-07T17:35:55.269Z,24.97
2022-08-07T17:38:35.950Z,24.89
2022-08-07T17:42:03.755Z,24.94
2022-08-07T17:44:14.757Z,24.84
2022-08-07T17:46:58.944Z,24.40
2022-08-07T17:49:52.299Z,24.17
2022-08-07T17:52:30.590Z,23.93
2022-08-07T17:55:12.516Z,23.74
2022-08-07T17:57:59.121Z,23.60
2022-08-07T18:00:34.712Z,23.80
2022-08-07T18:03:21.070Z,23.85
2022-08-07T18:06:01.556Z,23.83
2022-08-07T18:08:33.086Z,23.88
2022-08-07T18:12:16.431Z,23.77
2022-08-07T18:14:25.278Z,23.79
2022-08-07T18:17:06.392Z,23.46
2022-08-07T18:21:07.068Z,23.13
2022-08-07T18:22:33.980Z,23.34
2022-08-07T18:25:24.143Z,22.98
2022-08-07T18:28:07.365Z,23.41
2022-08-07T18:30:50.021Z,23.32
2022-08-07T18:33:38.171Z,23.29
2022-08-07T18:36:06.127Z,23.22
2022-08-07T18:38:56.987Z,23.30
2022-08-07T18:41:44.639Z,22.80
2022-08-07T18:45:39.588Z,22.65
2022-08-07T18:47:44.588Z,22.86
2022-08-07T18:50:43.892Z,22.61
2022-08-07T18:53:14.054Z,23.02
2022-08-07T18:56:08.045Z,22.75
2022-08-07T18:58:59.328Z,22.57
2022-08-07T19:02:17.200Z,22.01
2022-08-07T19:05:10.100Z,22.27
2022-08-07T19:07:51.530Z,22.08
2022-08-07T19:10:31.317Z,22.24
2022-08-07T19:13:25.633Z,22.15
2022-08-07T19:17:04.110Z,21.81
2022-08-07T19:19:08.766Z,22.05
2022-08-07T19:21:55.884Z,22.07
2022-08-07T19:24:35.500Z,22.02
2022-08-07T19:28:57.515Z,22.36
2022-08-07T19:30:55.949Z,22.35
2022-08-07T19:32:46.450Z,22.50
2022-08-07T19:35:19.559Z,22.55
2022-08-07T19:37:56.517Z,22.38
2022-08-07T19:40:31.074Z,22.12
2022-08-07T19:43:02.410Z,22.14
2022-08-07T19:46:05.104Z,22.19
2022-08-07T19:48:24.264Z,22.11
2022-08-07T19:50:53.821Z,22.41
2022-08-07T19:54:32.104Z,22.54
2022-08-07T19:57:51.707Z,22.22
2022-08-07T19:59:02.962Z,22.17
2022-08-07T20:01:52.209Z,22.15
2022-08-07T20:04:31.608Z,22.20
2022-08-07T20:07:00.718Z,22.21
2022-08-07T20:10:33.949Z,22.20
2022-08-07T20:12:34.923Z,22.33
2022-08-07T20:15:18.986Z,22.21
2022-08-07T20:17:56.220Z,22.14
2022-08-07T20:20:34.072Z,22.04
2022-08-07T20:23:41.598Z,22.04
2022-08-07T20:26:11.657Z,22.00
2022-08-07T20:28:51.635Z,22.00
2022-08-07T20:31:26.245Z,22.08
2022-08-07T20:33:56.755Z,21.94
2022-08-07T20:36:30.005Z,21.91
2022-08-07T20:39:00.779Z,22.04
2022-08-07T20:41:48.396Z,21.92
2022-08-07T20:44:16.360Z,21.95
2022-08-07T20:46:46.806Z,21.91
2022-08-07T20:49:59.987Z,21.56
2022-08-07T20:52:29.979Z,21.56
2022-08-07T20:55:12.883Z,21.56
2022-08-07T20:57:47.516Z,21.71
2022-08-07T21:00:42.486Z,21.38
2022-08-07T21:03:12.535Z,21.61
2022-08-07T21:05:54.827Z,21.58
2022-08-07T21:08:36.581Z,21.56
2022-08-07T21:11:12.044Z,21.49
2022-08-07T21:14:20.276Z,21.27
2022-08-07T21:16:56.011Z,21.35
2022-08-07T21:19:32.546Z,21.33
2022-08-07T21:22:15.138Z,21.37
2022-08-07T21:25:12.835Z,21.51
2022-08-07T21:28:02.223Z,21.45
2022-08-07T21:30:35.289Z,21.14
2022-08-07T21:33:06.027Z,21.07
2022-08-07T21:36:05.651Z,21.29
2022-08-07T21:38:27.746Z,21.15
2022-08-07T21:40:55.256Z,21.03
2022-08-07T21:43:47.258Z,21.02
2022-08-07T21:46:25.082Z,20.99
2022-08-07T21:49:16.354Z,20.61
2022-08-07T21:51:51.677Z,20.32
2022-08-07T21:54:26.280Z,20.26
2022-08-07T21:57:06.988Z,20.29
2022-08-07T22:00:03.945Z,20.29
2022-08-07T22:02:50.526Z,20.13
2022-08-07T22:05:45.688Z,20.17
2022-08-07T22:08:10.403Z,20.01
2022-08-07T22:10:42.535Z,19.87
2022-08-07T22:13:13.811Z,19.97
2022-08-07T22:16:39.095Z,20.03
2022-08-07T22:19:00.959Z,20.20
2022-08-07T22:22:02.275Z,20.17
2022-08-07T22:24:32.619Z,20.13
2022-08-07T22:27:18.072Z,20.06
2022-08-07T22:29:52.460Z,20.10
2022-08-07T22:32:42.302Z,20.29
2022-08-07T22:35:11.616Z,20.13
2022-08-07T22:38:01.947Z,19.95
2022-08-07T22:40:35.613Z,19.85
2022-08-07T22:43:13.712Z,19.67
2022-08-07T22:46:40.724Z,19.55
2022-08-07T22:48:55.920Z,19.58
2022-08-07T22:51:44.211Z,19.67
2022-08-07T22:54:38.198Z,19.84
2022-08-07T22:57:16.954Z,19.86
2022-08-07T22:59:52.402Z,19.85
2022-08-07T23:02:38.558Z,19.83
2022-08-07T23:06:14.519Z,19.11
2022-08-07T23:07:54.098Z,19.34
2022-08-07T23:10:48.754Z,19.15
2022-08-07T23:13:48.793Z,19.32
2022-08-07T23:16:46.757Z,19.40
2022-08-07T23:19:48.188Z,19.14
2022-08-07T23:22:31.900Z,19.15
2022-08-07T23:25:18.341Z,19.14
2022-08-07T23:28:22.559Z,19.34
2022-08-07T23:30:45.772Z,19.22
2022-08-07T23:34:33.773Z,19.21
2022-08-07T23:36:43.155Z,19.00
2022-08-07T23:39:35.965Z,19.16
2022-08-07T23:42:08.208Z,18.91
2022-08-07T23:44:57.973Z,19.06
2022-08-07T23:47:52.286Z,19.07
2022-08-07T23:50:29.736Z,19.12
2022-08-07T23:53:08.369Z,19.11
2022-08-07T23:55:56.730Z,18.88
2022-08-07T23:58:34.986Z,19.02
